Time;durP1;ratioP1;P1;durP2;ratioP2;P2;SDS_P1;SDS_P2;PMS_P1;PMS_P2;Temp;Humidity;BMP_temperature;BMP_pressure;BME280_temperature;BME280_humidity;BME280_pressure;Samples;Min_cycle;Max_cycle;Signal;HPM_P1;HPM_P2
2021/06/06 00:00:23;;;;;;;45.42;28.67;;;;;;;;;;5064506;27;39620;-82
2021/06/06 00:02:49;;;;;;;38.30;25.88;;;;;;;;;;5057160;28;47332;-80
2021/06/06 00:05:16;;;;;;;31.23;21.98;;;;;;;;;;5060081;28;37326;-78
2021/06/06 00:07:43;;;;;;;44.60;27.45;;;;;;;;;;5064121;27;38841;-79
2021/06/06 00:10:10;;;;;;;39.28;25.88;;;;;;;;;;5054804;27;38535;-80
2021/06/06 00:12:36;;;;;;;45.88;27.65;;;;;;;;;;5054950;28;38432;-79
2021/06/06 00:15:05;;;;;;;48.40;28.95;;;;;;;;;;5061463;27;37233;-82
2021/06/06 00:17:31;;;;;;;34.80;21.55;;;;;;;;;;5060142;28;47353;-81
2021/06/06 00:19:58;;;;;;;35.20;23.83;;;;;;;;;;5055287;28;37680;-81
2021/06/06 00:22:24;;;;;;;40.58;25.67;;;;;;;;;;5047128;28;37396;-81
2021/06/06 00:24:50;;;;;;;32.15;24.13;;;;;;;;;;5059220;28;37640;-80
2021/06/06 00:27:17;;;;;;;31.23;22.98;;;;;;;;;;5061804;27;39743;-80
2021/06/06 00:29:43;;;;;;;39.05;24.85;;;;;;;;;;5055220;28;39352;-83
2021/06/06 00:32:10;;;;;;;30.67;21.52;;;;;;;;;;5061759;27;39311;-82
2021/06/06 00:34:36;;;;;;;39.53;24.90;;;;;;;;;;5062572;28;37137;-79
2021/06/06 00:37:03;;;;;;;29.17;21.38;;;;;;;;;;5051687;28;39606;-81
2021/06/06 00:39:29;;;;;;;37.08;24.27;;;;;;;;;;5057327;28;39326;-81
2021/06/06 00:41:56;;;;;;;30.25;22.13;;;;;;;;;;5050797;28;38570;-83
2021/06/06 00:44:24;;;;;;;31.20;21.25;;;;;;;;;;5056211;27;38189;-83
2021/06/06 00:46:50;;;;;;;33.33;22.10;;;;;;;;;;5055885;27;39463;-80
2021/06/06 00:49:18;;;;;;;31.08;20.63;;;;;;;;;;5060792;27;38818;-82
2021/06/06 00:51:47;;;;;;;28.88;19.35;;;;;;;;;;5059504;27;37976;-83
2021/06/06 00:54:14;;;;;;;25.52;18.38;;;;;;;;;;5060697;27;37007;-81
2021/06/06 00:56:41;;;;;;;29.02;19.75;;;;;;;;;;5062434;28;37919;-82
2021/06/06 00:59:07;;;;;;;24.25;17.48;;;;;;;;;;5055982;27;40163;-81
2021/06/06 01:01:34;;;;;;;38.83;24.05;;;;;;;;;;5059116;28;39853;-82
2021/06/06 01:04:01;;;;;;;29.27;20.77;;;;;;;;;;5062006;28;37926;-82
2021/06/06 01:06:30;;;;;;;22.80;17.65;;;;;;;;;;5066492;28;47677;-82
2021/06/06 01:08:58;;;;;;;27.65;18.27;;;;;;;;;;5066512;27;38643;-81
2021/06/06 01:11:44;;;;;;;26.42;17.08;;;;;;;;;;5056857;27;39468;-81
2021/06/06 01:14:13;;;;;;;29.33;21.15;;;;;;;;;;5058024;28;37894;-80
2021/06/06 01:16:58;;;;;;;27.48;19.38;;;;;;;;;;5061389;28;39180;-81
2021/06/06 01:19:35;;;;;;;33.95;21.00;;;;;;;;;;5061563;27;38694;-80
2021/06/06 01:22:31;;;;;;;28.45;18.83;;;;;;;;;;5047952;27;38308;-80
2021/06/06 01:25:04;;;;;;;26.60;17.55;;;;;;;;;;5047905;28;37918;-80
2021/06/06 01:27:31;;;;;;;27.80;18.38;;;;;;;;;;5049234;28;47331;-80
2021/06/06 01:30:00;;;;;;;30.20;20.27;;;;;;;;;;5070871;27;38875;-80
2021/06/06 01:32:32;;;;;;;25.45;18.08;;;;;;;;;;5053324;28;48024;-81
2021/06/06 01:35:04;;;;;;;26.23;18.17;;;;;;;;;;5052415;28;38822;-81
2021/06/06 01:37:31;;;;;;;;;;;;;;;;;;5055009;27;49774;-82
2021/06/06 01:40:17;;;;;;;32.75;20.60;;;;;;;;;;5053214;28;39800;-78
2021/06/06 01:42:46;;;;;;;29.02;20.23;;;;;;;;;;5050438;27;48883;-80
2021/06/06 01:45:16;;;;;;;30.92;20.23;;;;;;;;;;5049998;27;37847;-82
2021/06/06 01:47:43;;;;;;;27.08;18.85;;;;;;;;;;5060530;28;39630;-81
2021/06/06 01:50:15;;;;;;;30.40;19.02;;;;;;;;;;5054899;27;39254;-82
2021/06/06 01:52:43;;;;;;;28.55;18.98;;;;;;;;;;5057699;28;49060;-82
2021/06/06 01:55:12;;;;;;;23.23;16.05;;;;;;;;;;5067380;27;37196;-79
2021/06/06 01:57:39;;;;;;;29.98;20.35;;;;;;;;;;5055334;28;41172;-79
2021/06/06 02:00:08;;;;;;;22.48;15.57;;;;;;;;;;5049067;28;39374;-82
2021/06/06 02:02:35;;;;;;;20.25;16.02;;;;;;;;;;5047530;28;47315;-82
2021/06/06 02:05:05;;;;;;;19.15;14.25;;;;;;;;;;5052687;28;38099;-84
2021/06/06 02:07:33;;;;;;;25.52;17.55;;;;;;;;;;5055874;27;48962;-82
2021/06/06 02:10:09;;;;;;;25.70;16.98;;;;;;;;;;5047155;28;39524;-81
2021/06/06 02:12:37;;;;;;;19.70;12.25;;;;;;;;;;5080704;28;47413;-84
2021/06/06 02:15:06;;;;;;;12.10;8.68;;;;;;;;;;5063440;28;36235;-82
2021/06/06 02:17:32;;;;;;;14.80;8.57;;;;;;;;;;5055584;28;46959;-83
2021/06/06 02:19:59;;;;;;;10.40;7.45;;;;;;;;;;5057343;28;39547;-82
2021/06/06 02:22:27;;;;;;;17.52;9.82;;;;;;;;;;5050349;27;37170;-82
2021/06/06 02:24:54;;;;;;;12.35;9.43;;;;;;;;;;5035861;28;36451;-81
2021/06/06 02:27:21;;;;;;;13.13;8.93;;;;;;;;;;5044427;28;39076;-82
2021/06/06 02:29:50;;;;;;;11.88;6.95;;;;;;;;;;5047976;28;38824;-83
2021/06/06 02:32:23;;;;;;;10.65;6.95;;;;;;;;;;5056838;27;39153;-83
2021/06/06 02:34:59;;;;;;;10.43;6.95;;;;;;;;;;5074253;28;38419;-83
2021/06/06 02:37:28;;;;;;;9.73;6.68;;;;;;;;;;5055651;28;38762;-83
2021/06/06 02:40:00;;;;;;;14.02;8.05;;;;;;;;;;5049094;27;38732;-83
2021/06/06 02:42:29;;;;;;;8.90;6.60;;;;;;;;;;5055083;28;38838;-82
2021/06/06 02:45:01;;;;;;;13.05;9.15;;;;;;;;;;5071149;28;37736;-82
2021/06/06 02:47:30;;;;;;;13.57;10.02;;;;;;;;;;5072292;28;48909;-82
2021/06/06 02:49:57;;;;;;;15.90;11.35;;;;;;;;;;5059501;27;38242;-83
2021/06/06 02:52:38;;;;;;;19.70;13.30;;;;;;;;;;5055166;27;37914;-83
2021/06/06 02:55:07;;;;;;;15.55;11.27;;;;;;;;;;5059327;27;38691;-81
2021/06/06 02:57:35;;;;;;;20.42;12.55;;;;;;;;;;5052044;28;40398;-84
2021/06/06 03:00:05;;;;;;;17.48;13.00;;;;;;;;;;5077521;28;39324;-82
2021/06/06 03:02:36;;;;;;;20.00;13.30;;;;;;;;;;5046957;28;46954;-83
2021/06/06 03:05:04;;;;;;;18.27;12.70;;;;;;;;;;5056000;27;37326;-84
2021/06/06 03:07:36;;;;;;;12.55;10.05;;;;;;;;;;5049024;28;39209;-83
2021/06/06 03:10:03;;;;;;;13.60;10.60;;;;;;;;;;5050759;27;38521;-83
2021/06/06 03:12:30;;;;;;;13.68;9.23;;;;;;;;;;5060831;27;37271;-83
2021/06/06 03:14:58;;;;;;;11.68;9.95;;;;;;;;;;5056263;27;37721;-83
2021/06/06 03:17:26;;;;;;;15.25;10.45;;;;;;;;;;5058473;27;38819;-85
2021/06/06 03:19:54;;;;;;;13.23;10.05;;;;;;;;;;5058692;28;37538;-83
2021/06/06 03:22:25;;;;;;;11.57;7.90;;;;;;;;;;5058446;28;39633;-84
2021/06/06 03:24:54;;;;;;;10.95;7.68;;;;;;;;;;5058757;28;37676;-84
2021/06/06 03:27:21;;;;;;;9.02;6.70;;;;;;;;;;5060832;27;38610;-82
2021/06/06 03:30:11;;;;;;;9.95;5.95;;;;;;;;;;5052853;28;39380;-84
2021/06/06 03:32:40;;;;;;;9.82;6.03;;;;;;;;;;5037606;27;48948;-85
2021/06/06 03:35:07;;;;;;;5.18;4.47;;;;;;;;;;5034542;28;37208;-84
2021/06/06 03:37:34;;;;;;;6.82;4.53;;;;;;;;;;5040861;28;39351;-83
2021/06/06 03:40:00;;;;;;;5.63;4.63;;;;;;;;;;5027560;28;39830;-85
2021/06/06 03:42:27;;;;;;;6.55;4.32;;;;;;;;;;5036134;28;38898;-84
2021/06/06 03:44:53;;;;;;;6.53;4.40;;;;;;;;;;5036394;28;35721;-84
2021/06/06 03:47:20;;;;;;;9.25;4.10;;;;;;;;;;5039723;28;39334;-83
2021/06/06 03:49:46;;;;;;;5.45;3.63;;;;;;;;;;5036328;28;40199;-82
2021/06/06 03:52:13;;;;;;;3.97;3.55;;;;;;;;;;5050808;28;39766;-80
2021/06/06 03:54:39;;;;;;;4.40;3.88;;;;;;;;;;5050319;28;37022;-80
2021/06/06 03:57:06;;;;;;;5.78;4.10;;;;;;;;;;5053364;28;40828;-82
2021/06/06 03:59:33;;;;;;;7.95;4.93;;;;;;;;;;5051294;27;38369;-84
2021/06/06 04:01:59;;;;;;;6.80;4.68;;;;;;;;;;5046477;28;37376;-80
2021/06/06 04:04:26;;;;;;;9.43;4.65;;;;;;;;;;5048961;27;37605;-81
2021/06/06 04:06:52;;;;;;;6.43;3.85;;;;;;;;;;5049898;28;39957;-81
2021/06/06 04:09:19;;;;;;;6.07;4.70;;;;;;;;;;5057368;28;39085;-84
2021/06/06 04:11:45;;;;;;;5.97;3.92;;;;;;;;;;5059510;27;38848;-84
2021/06/06 04:14:12;;;;;;;7.28;4.43;;;;;;;;;;5056907;28;38395;-83
2021/06/06 04:16:38;;;;;;;4.65;3.88;;;;;;;;;;5059559;28;40210;-83
2021/06/06 04:19:05;;;;;;;7.93;4.30;;;;;;;;;;5068909;27;39148;-83
2021/06/06 04:21:33;;;;;;;6.95;4.05;;;;;;;;;;5058599;28;38917;-83
2021/06/06 04:23:59;;;;;;;5.63;4.15;;;;;;;;;;5057230;28;36147;-82
2021/06/06 04:26:26;;;;;;;6.38;4.10;;;;;;;;;;5054827;27;38681;-83
2021/06/06 04:28:52;;;;;;;6.55;3.47;;;;;;;;;;5070949;28;39234;-83
2021/06/06 04:31:19;;;;;;;3.85;3.38;;;;;;;;;;5058763;27;39160;-81
2021/06/06 04:33:45;;;;;;;6.00;3.72;;;;;;;;;;5057458;27;36918;-83
2021/06/06 04:36:12;;;;;;;7.03;3.92;;;;;;;;;;5054349;28;39267;-81
2021/06/06 04:38:39;;;;;;;5.90;3.25;;;;;;;;;;5056510;28;40089;-80
2021/06/06 04:41:10;;;;;;;6.82;3.53;;;;;;;;;;5055377;27;38763;-82
2021/06/06 04:43:36;;;;;;;7.45;3.38;;;;;;;;;;5057329;27;37528;-82
2021/06/06 04:46:03;;;;;;;6.07;3.38;;;;;;;;;;5047553;28;40248;-82
2021/06/06 04:48:34;;;;;;;5.15;3.20;;;;;;;;;;5053800;28;40156;-82
2021/06/06 04:51:04;;;;;;;5.50;3.53;;;;;;;;;;5057420;27;38416;-81
2021/06/06 04:53:30;;;;;;;4.95;2.78;;;;;;;;;;5039822;28;49333;-82
2021/06/06 04:55:58;;;;;;;5.00;3.05;;;;;;;;;;5036804;28;40436;-82
2021/06/06 04:58:25;;;;;;;5.10;2.95;;;;;;;;;;5030677;27;39537;-80
2021/06/06 05:00:52;;;;;;;5.68;2.45;;;;;;;;;;5046919;28;39242;-80
2021/06/06 05:03:19;;;;;;;4.78;3.08;;;;;;;;;;5039286;28;37573;-81
2021/06/06 05:05:45;;;;;;;5.10;2.70;;;;;;;;;;5035150;27;38649;-82
2021/06/06 05:08:13;;;;;;;4.88;2.40;;;;;;;;;;5033135;28;39043;-82
2021/06/06 05:10:40;;;;;;;5.75;2.42;;;;;;;;;;5032749;28;38920;-82
2021/06/06 05:13:07;;;;;;;3.00;2.50;;;;;;;;;;5055811;28;37069;-81
2021/06/06 05:15:35;;;;;;;6.85;3.25;;;;;;;;;;5061364;28;39798;-80
2021/06/06 05:18:01;;;;;;;6.07;2.75;;;;;;;;;;5037074;28;40280;-81
2021/06/06 05:20:29;;;;;;;6.05;3.03;;;;;;;;;;5058315;28;47742;-82
2021/06/06 05:22:56;;;;;;;5.88;3.03;;;;;;;;;;5039270;28;37166;-80
2021/06/06 05:25:22;;;;;;;5.82;2.78;;;;;;;;;;5061856;27;39854;-79
2021/06/06 05:27:49;;;;;;;4.05;2.53;;;;;;;;;;5037961;28;38566;-80
2021/06/06 05:30:24;;;;;;;5.57;2.67;;;;;;;;;;5036125;28;38006;-81
2021/06/06 05:32:51;;;;;;;2.70;2.10;;;;;;;;;;5083902;27;48860;-80
2021/06/06 05:35:18;;;;;;;4.55;2.33;;;;;;;;;;5060029;27;40573;-79
2021/06/06 05:37:44;;;;;;;5.88;2.30;;;;;;;;;;5063243;28;38343;-80
2021/06/06 05:40:11;;;;;;;5.03;2.60;;;;;;;;;;5046025;27;38288;-79
2021/06/06 05:42:38;;;;;;;5.50;2.42;;;;;;;;;;5087288;28;37342;-80
2021/06/06 05:45:05;;;;;;;4.70;3.13;;;;;;;;;;5062033;27;37770;-81
2021/06/06 05:47:31;;;;;;;4.03;2.83;;;;;;;;;;5055739;28;37832;-81
2021/06/06 05:49:58;;;;;;;4.05;3.10;;;;;;;;;;5065117;28;39637;-81
2021/06/06 05:52:24;;;;;;;6.45;2.90;;;;;;;;;;5052171;28;36923;-81
2021/06/06 05:54:51;;;;;;;4.95;3.30;;;;;;;;;;5065387;28;39109;-80
2021/06/06 05:57:17;;;;;;;4.00;2.30;;;;;;;;;;5056819;27;38988;-80
2021/06/06 05:59:44;;;;;;;3.72;2.60;;;;;;;;;;5056147;28;38782;-80
2021/06/06 06:02:11;;;;;;;4.57;3.15;;;;;;;;;;5046243;28;37143;-79
2021/06/06 06:04:37;;;;;;;5.10;2.90;;;;;;;;;;5041998;28;38610;-80
2021/06/06 06:07:04;;;;;;;4.55;3.22;;;;;;;;;;5031855;28;39250;-80
2021/06/06 06:09:30;;;;;;;2.70;2.38;;;;;;;;;;5061195;28;39336;-80
2021/06/06 06:11:57;;;;;;;5.78;2.90;;;;;;;;;;5042667;28;36894;-79
2021/06/06 06:14:23;;;;;;;4.68;2.90;;;;;;;;;;5040880;28;39284;-80
2021/06/06 06:16:50;;;;;;;4.47;2.80;;;;;;;;;;5082968;28;40324;-80
2021/06/06 06:19:16;;;;;;;4.72;2.80;;;;;;;;;;5055238;28;38867;-80
2021/06/06 06:21:43;;;;;;;4.43;2.70;;;;;;;;;;5054028;28;38301;-79
2021/06/06 06:24:10;;;;;;;3.55;2.50;;;;;;;;;;5053072;28;37821;-78
2021/06/06 06:26:37;;;;;;;7.32;2.70;;;;;;;;;;5062167;27;38379;-80
2021/06/06 06:29:04;;;;;;;4.50;2.50;;;;;;;;;;5056549;28;38668;-81
2021/06/06 06:31:31;;;;;;;3.45;2.20;;;;;;;;;;5053610;27;48607;-78
2021/06/06 06:33:59;;;;;;;3.47;2.70;;;;;;;;;;5063311;28;38940;-76
2021/06/06 06:36:26;;;;;;;3.70;2.42;;;;;;;;;;5056574;27;38815;-78
2021/06/06 06:38:53;;;;;;;2.75;1.98;;;;;;;;;;5060342;27;38490;-78
2021/06/06 06:41:23;;;;;;;2.65;2.17;;;;;;;;;;5058807;27;38046;-78
2021/06/06 06:43:49;;;;;;;3.45;2.30;;;;;;;;;;5053592;28;40081;-78
2021/06/06 06:46:15;;;;;;;4.07;1.95;;;;;;;;;;5049667;27;39438;-79
2021/06/06 06:48:42;;;;;;;2.42;1.80;;;;;;;;;;5052585;27;38038;-78
2021/06/06 06:51:09;;;;;;;3.78;2.13;;;;;;;;;;5053441;28;38307;-78
2021/06/06 06:53:35;;;;;;;2.55;1.77;;;;;;;;;;5049986;27;39325;-78
2021/06/06 06:56:01;;;;;;;2.35;1.50;;;;;;;;;;5064450;27;39351;-80
2021/06/06 06:58:28;;;;;;;2.15;1.70;;;;;;;;;;5058657;28;47146;-79
2021/06/06 07:00:55;;;;;;;2.25;1.45;;;;;;;;;;5080940;27;37638;-78
2021/06/06 07:03:24;;;;;;;2.45;1.60;;;;;;;;;;5057175;27;38835;-78
2021/06/06 07:05:50;;;;;;;5.55;2.03;;;;;;;;;;5053015;27;38278;-78
2021/06/06 07:08:22;;;;;;;1.85;1.48;;;;;;;;;;5052775;27;36464;-79
2021/06/06 07:10:49;;;;;;;3.65;1.73;;;;;;;;;;5057282;27;36770;-79
2021/06/06 07:13:16;;;;;;;2.97;1.80;;;;;;;;;;5053916;28;38847;-78
2021/06/06 07:15:42;;;;;;;3.47;1.60;;;;;;;;;;5058347;28;40287;-78
2021/06/06 07:18:11;;;;;;;2.67;1.70;;;;;;;;;;5054939;28;39971;-78
2021/06/06 07:20:39;;;;;;;4.20;1.70;;;;;;;;;;5038015;27;37010;-78
2021/06/06 07:23:07;;;;;;;3.92;1.70;;;;;;;;;;5046835;28;38958;-79
2021/06/06 07:25:33;;;;;;;2.00;1.45;;;;;;;;;;5039667;28;39997;-77
2021/06/06 07:28:00;;;;;;;3.35;2.10;;;;;;;;;;5064627;28;39591;-79
2021/06/06 07:30:31;;;;;;;2.17;1.98;;;;;;;;;;5070155;28;38855;-78
2021/06/06 07:32:59;;;;;;;3.22;1.85;;;;;;;;;;5065872;28;38972;-80
2021/06/06 07:35:27;;;;;;;2.30;1.77;;;;;;;;;;5072946;28;39446;-79
2021/06/06 07:37:53;;;;;;;3.17;1.65;;;;;;;;;;5065635;27;38721;-79
2021/06/06 07:40:20;;;;;;;2.47;1.92;;;;;;;;;;5059361;27;38266;-78
2021/06/06 07:42:46;;;;;;;3.05;1.75;;;;;;;;;;5055790;28;39920;-77
2021/06/06 07:45:14;;;;;;;2.30;2.03;;;;;;;;;;5059509;28;38644;-78
2021/06/06 07:47:42;;;;;;;4.03;2.20;;;;;;;;;;5050933;27;39266;-78
2021/06/06 07:50:14;;;;;;;4.55;2.42;;;;;;;;;;5053016;28;37460;-78
2021/06/06 07:52:40;;;;;;;3.03;2.10;;;;;;;;;;5064996;27;38576;-79
2021/06/06 07:55:09;;;;;;;3.90;2.45;;;;;;;;;;5053446;27;40031;-80
2021/06/06 07:57:35;;;;;;;3.45;2.42;;;;;;;;;;5058043;28;36856;-79
2021/06/06 08:00:01;;;;;;;4.25;2.30;;;;;;;;;;5059466;27;36909;-80
2021/06/06 08:02:28;;;;;;;4.88;2.65;;;;;;;;;;5058870;28;39748;-81
2021/06/06 08:04:54;;;;;;;3.67;2.45;;;;;;;;;;5059744;28;38756;-82
2021/06/06 08:07:21;;;;;;;5.95;2.78;;;;;;;;;;5055753;27;39030;-81
2021/06/06 08:09:47;;;;;;;4.45;2.42;;;;;;;;;;5061924;27;37147;-80
2021/06/06 08:12:13;;;;;;;4.07;1.92;;;;;;;;;;5055670;28;39590;-81
2021/06/06 08:14:40;;;;;;;3.13;2.20;;;;;;;;;;5050721;27;38921;-81
2021/06/06 08:17:06;;;;;;;3.50;2.45;;;;;;;;;;5053877;28;38860;-81
2021/06/06 08:19:33;;;;;;;3.55;1.88;;;;;;;;;;5061992;28;36948;-81
2021/06/06 08:22:01;;;;;;;2.28;2.08;;;;;;;;;;5054728;28;40529;-82
2021/06/06 08:24:29;;;;;;;4.05;1.50;;;;;;;;;;5031362;28;47355;-80
2021/06/06 08:26:55;;;;;;;2.03;1.50;;;;;;;;;;5036874;28;39691;-79
2021/06/06 08:29:22;;;;;;;3.70;1.88;;;;;;;;;;5029920;27;38767;-82
2021/06/06 08:31:49;;;;;;;2.80;1.65;;;;;;;;;;5041754;28;40045;-79
2021/06/06 08:34:16;;;;;;;40.97;4.13;;;;;;;;;;5035927;27;39213;-79
2021/06/06 08:36:47;;;;;;;3.42;1.95;;;;;;;;;;5044447;28;37335;-82
2021/06/06 08:39:22;;;;;;;13.18;2.33;;;;;;;;;;5072197;28;37515;-84
2021/06/06 08:41:52;;;;;;;4.50;1.92;;;;;;;;;;5057764;28;42074;-83
2021/06/06 08:44:25;;;;;;;3.00;1.50;;;;;;;;;;5065956;28;39272;-84
2021/06/06 08:46:57;;;;;;;2.88;1.60;;;;;;;;;;5072233;27;39307;-80
2021/06/06 08:49:24;;;;;;;5.00;1.77;;;;;;;;;;5061846;28;38792;-81
2021/06/06 08:51:55;;;;;;;5.57;1.58;;;;;;;;;;5063956;27;39149;-80
2021/06/06 08:54:41;;;;;;;2.78;1.65;;;;;;;;;;5060005;27;38390;-80
2021/06/06 08:57:14;;;;;;;4.03;1.77;;;;;;;;;;5043300;27;37976;-81
2021/06/06 08:59:46;;;;;;;2.25;1.38;;;;;;;;;;5040269;28;37159;-80
2021/06/06 09:02:19;;;;;;;1.60;1.20;;;;;;;;;;5031562;28;39845;-78
2021/06/06 09:04:45;;;;;;;4.32;1.60;;;;;;;;;;5031967;28;38312;-81
2021/06/06 09:07:13;;;;;;;1.63;1.23;;;;;;;;;;5061869;27;42132;-79
2021/06/06 09:09:41;;;;;;;2.33;1.23;;;;;;;;;;5068232;28;38307;-81
2021/06/06 09:12:11;;;;;;;3.58;1.30;;;;;;;;;;5061795;28;38149;-81
2021/06/06 09:14:37;;;;;;;3.13;1.40;;;;;;;;;;5066982;28;37852;-80
2021/06/06 09:17:08;;;;;;;2.78;1.17;;;;;;;;;;5035397;27;36485;-81
2021/06/06 09:19:43;;;;;;;3.20;1.67;;;;;;;;;;5032964;28;36973;-81
2021/06/06 09:22:10;;;;;;;1.67;0.82;;;;;;;;;;5036028;28;39906;-80
2021/06/06 09:24:39;;;;;;;2.15;0.98;;;;;;;;;;5030896;28;39880;-80
2021/06/06 09:27:09;;;;;;;1.20;0.80;;;;;;;;;;5032832;27;38447;-79
2021/06/06 09:29:36;;;;;;;1.02;0.80;;;;;;;;;;5069281;28;38586;-79
2021/06/06 09:32:28;;;;;;;1.30;0.82;;;;;;;;;;5054656;28;41409;-81
2021/06/06 09:34:56;;;;;;;1.20;0.90;;;;;;;;;;5071914;28;37366;-80
2021/06/06 09:37:25;;;;;;;1.50;0.73;;;;;;;;;;5056466;27;38428;-81
2021/06/06 09:39:57;;;;;;;1.90;0.90;;;;;;;;;;5067379;27;36851;-80
2021/06/06 09:42:44;;;;;;;1.67;0.82;;;;;;;;;;5052101;27;38335;-80
2021/06/06 09:45:24;;;;;;;0.90;0.60;;;;;;;;;;5062395;27;40076;-80
2021/06/06 09:47:55;;;;;;;1.83;1.00;;;;;;;;;;5067720;28;39854;-80
2021/06/06 09:50:22;;;;;;;1.37;0.90;;;;;;;;;;5080738;27;37665;-79
2021/06/06 09:52:48;;;;;;;1.38;0.70;;;;;;;;;;5038228;27;39180;-81
2021/06/06 09:55:26;;;;;;;1.98;0.70;;;;;;;;;;5028010;28;40087;-79
2021/06/06 09:57:54;;;;;;;0.50;0.50;;;;;;;;;;5046814;28;48746;-79
2021/06/06 10:00:25;;;;;;;3.35;0.73;;;;;;;;;;5056403;27;37524;-80
2021/06/06 10:02:53;;;;;;;1.17;0.60;;;;;;;;;;5039947;28;39346;-79
2021/06/06 10:05:24;;;;;;;1.10;0.63;;;;;;;;;;5034923;27;39662;-80
2021/06/06 10:08:09;;;;;;;1.13;0.68;;;;;;;;;;5045567;27;37931;-79
2021/06/06 10:10:38;;;;;;;1.33;0.57;;;;;;;;;;5059360;28;47991;-80
2021/06/06 10:13:09;;;;;;;1.15;0.60;;;;;;;;;;5050182;28;39683;-80
2021/06/06 10:15:43;;;;;;;1.25;0.50;;;;;;;;;;5075491;27;39555;-79
2021/06/06 10:18:12;;;;;;;1.20;0.50;;;;;;;;;;5056689;27;37356;-79
2021/06/06 10:20:41;;;;;;;2.05;0.55;;;;;;;;;;5057029;28;39032;-78
2021/06/06 10:23:19;;;;;;;1.95;0.52;;;;;;;;;;5058933;28;39075;-80
2021/06/06 10:25:52;;;;;;;0.90;0.30;;;;;;;;;;5044955;28;38963;-79
2021/06/06 10:28:24;;;;;;;2.50;0.88;;;;;;;;;;5052299;27;39651;-80
2021/06/06 10:31:11;;;;;;;0.40;0.40;;;;;;;;;;5031871;28;37689;-79
2021/06/06 10:33:40;;;;;;;1.75;0.63;;;;;;;;;;5046965;28;47809;-80
2021/06/06 10:36:07;;;;;;;2.15;0.60;;;;;;;;;;5051327;27;38786;-79
2021/06/06 10:38:35;;;;;;;3.00;0.45;;;;;;;;;;5046139;27;38152;-80
2021/06/06 10:41:10;;;;;;;1.83;0.40;;;;;;;;;;5053017;27;36364;-78
2021/06/06 10:43:36;;;;;;;2.05;0.60;;;;;;;;;;5050244;27;40006;-80
2021/06/06 10:46:06;;;;;;;4.43;0.93;;;;;;;;;;5051549;27;39019;-79
2021/06/06 10:48:41;;;;;;;1.67;0.45;;;;;;;;;;5049104;28;39254;-79
2021/06/06 10:51:10;;;;;;;1.25;0.50;;;;;;;;;;5048294;27;36725;-79
2021/06/06 10:53:36;;;;;;;1.45;0.50;;;;;;;;;;5070406;28;41016;-82
2021/06/06 10:56:13;;;;;;;2.45;0.60;;;;;;;;;;5049040;27;38414;-79
2021/06/06 10:58:49;;;;;;;0.75;0.45;;;;;;;;;;5060827;28;39765;-79
2021/06/06 11:01:18;;;;;;;2.10;0.60;;;;;;;;;;5050297;27;36845;-81
2021/06/06 11:03:46;;;;;;;1.10;0.57;;;;;;;;;;5046463;28;38862;-79
2021/06/06 11:06:39;;;;;;;1.70;0.50;;;;;;;;;;5059575;27;38502;-80
2021/06/06 11:09:07;;;;;;;1.60;0.60;;;;;;;;;;5068031;28;38895;-80
2021/06/06 11:11:36;;;;;;;1.85;0.40;;;;;;;;;;5053023;27;36563;-81
2021/06/06 11:14:09;;;;;;;1.95;0.60;;;;;;;;;;5056613;28;39147;-81
2021/06/06 11:16:36;;;;;;;1.30;0.63;;;;;;;;;;5051053;28;47366;-80
2021/06/06 11:19:05;;;;;;;1.17;0.38;;;;;;;;;;5057961;27;39201;-81
2021/06/06 11:21:35;;;;;;;1.50;0.60;;;;;;;;;;5052876;28;37579;-79
2021/06/06 11:24:02;;;;;;;1.60;0.52;;;;;;;;;;5076671;28;39701;-81
2021/06/06 11:26:42;;;;;;;2.42;0.60;;;;;;;;;;5057148;27;48756;-81
2021/06/06 11:29:10;;;;;;;2.42;0.80;;;;;;;;;;5050374;27;38671;-78
2021/06/06 11:31:37;;;;;;;2.17;0.70;;;;;;;;;;5038436;28;38712;-81
2021/06/06 11:34:09;;;;;;;1.27;0.63;;;;;;;;;;5051077;28;37675;-78
2021/06/06 11:36:37;;;;;;;2.78;0.80;;;;;;;;;;5051616;28;39137;-77
2021/06/06 11:39:30;;;;;;;1.52;0.70;;;;;;;;;;5049435;28;38989;-78
2021/06/06 11:41:57;;;;;;;2.15;0.73;;;;;;;;;;5048689;28;35369;-77
2021/06/06 11:44:28;;;;;;;1.13;0.60;;;;;;;;;;5066504;28;38003;-79
2021/06/06 11:46:59;;;;;;;1.40;0.60;;;;;;;;;;5071682;28;39909;-77
2021/06/06 11:49:28;;;;;;;2.13;0.60;;;;;;;;;;5070818;28;40491;-76
2021/06/06 11:51:55;;;;;;;1.23;0.43;;;;;;;;;;5069334;28;37365;-80
2021/06/06 11:54:41;;;;;;;0.93;0.65;;;;;;;;;;5067419;28;39457;-80
2021/06/06 11:57:09;;;;;;;1.75;0.70;;;;;;;;;;5042946;28;37601;-79
2021/06/06 11:59:43;;;;;;;1.90;0.57;;;;;;;;;;5060720;28;38334;-80
2021/06/06 12:02:12;;;;;;;1.33;0.55;;;;;;;;;;5065965;28;36739;-79
2021/06/06 12:04:38;;;;;;;1.38;0.50;;;;;;;;;;5039502;28;39074;-80
2021/06/06 12:07:11;;;;;;;2.05;0.70;;;;;;;;;;5040406;28;38507;-79
2021/06/06 12:09:38;;;;;;;1.65;0.60;;;;;;;;;;5068198;28;37455;-78
2021/06/06 12:12:06;;;;;;;1.52;0.68;;;;;;;;;;5044350;28;35683;-79
2021/06/06 12:14:33;;;;;;;0.55;0.43;;;;;;;;;;5044670;28;38852;-78
2021/06/06 12:17:00;;;;;;;1.23;0.57;;;;;;;;;;5039008;28;38058;-78
2021/06/06 12:19:36;;;;;;;3.08;0.50;;;;;;;;;;5037654;28;38422;-77
2021/06/06 12:22:04;;;;;;;2.95;0.77;;;;;;;;;;5063386;27;35665;-78
2021/06/06 12:24:31;;;;;;;0.75;0.50;;;;;;;;;;5032407;28;39081;-80
2021/06/06 12:27:04;;;;;;;0.85;0.45;;;;;;;;;;5060312;28;37538;-79
2021/06/06 12:29:37;;;;;;;1.25;0.50;;;;;;;;;;5058407;28;48541;-78
2021/06/06 12:32:12;;;;;;;0.57;0.30;;;;;;;;;;5046339;28;35915;-78
2021/06/06 12:34:39;;;;;;;1.15;0.50;;;;;;;;;;5037659;28;38458;-79
2021/06/06 12:37:15;;;;;;;2.03;0.60;;;;;;;;;;5064844;28;38782;-78
2021/06/06 12:39:43;;;;;;;0.82;0.30;;;;;;;;;;5055745;28;38362;-77
2021/06/06 12:42:13;;;;;;;2.05;0.45;;;;;;;;;;5065111;28;35600;-80
2021/06/06 12:44:41;;;;;;;0.95;0.40;;;;;;;;;;5055298;28;39454;-81
2021/06/06 12:47:09;;;;;;;3.33;0.70;;;;;;;;;;5052897;28;37640;-78
2021/06/06 12:49:39;;;;;;;0.90;0.30;;;;;;;;;;5052122;28;37693;-77
2021/06/06 12:52:17;;;;;;;0.82;0.43;;;;;;;;;;5052020;27;37509;-78
2021/06/06 12:54:43;;;;;;;0.50;0.40;;;;;;;;;;5072353;27;37939;-78
2021/06/06 12:57:18;;;;;;;5.28;0.77;;;;;;;;;;5062332;27;38652;-80
2021/06/06 12:59:45;;;;;;;12.95;2.65;;;;;;;;;;5061526;28;36987;-78
2021/06/06 13:02:23;;;;;;;61.38;10.88;;;;;;;;;;5059469;27;38021;-79
2021/06/06 13:05:10;;;;;;;4.57;0.82;;;;;;;;;;5056507;28;37730;-78
2021/06/06 13:07:38;;;;;;;1.30;0.40;;;;;;;;;;5046336;27;49086;-77
2021/06/06 13:10:15;;;;;;;2.17;0.50;;;;;;;;;;5063046;27;39257;-78
2021/06/06 13:12:44;;;;;;;2.22;0.40;;;;;;;;;;5048456;28;47212;-79
2021/06/06 13:15:14;;;;;;;3.85;0.47;;;;;;;;;;5060578;28;39274;-78
2021/06/06 13:17:53;;;;;;;0.45;0.45;;;;;;;;;;5066066;28;38745;-79
2021/06/06 13:20:36;;;;;;;1.63;0.60;;;;;;;;;;5057116;28;38478;-77
2021/06/06 13:23:04;;;;;;;1.05;0.38;;;;;;;;;;5058390;27;37270;-77
2021/06/06 13:25:33;;;;;;;2.33;0.50;;;;;;;;;;5050198;27;262541;-79
2021/06/06 13:28:00;;;;;;;1.33;0.45;;;;;;;;;;5049993;28;38661;-78
2021/06/06 13:30:28;;;;;;;0.55;0.43;;;;;;;;;;5057235;28;39214;-75
2021/06/06 13:33:00;;;;;;;28.13;4.20;;;;;;;;;;5055512;28;36427;-78
2021/06/06 13:35:27;;;;;;;10.27;1.85;;;;;;;;;;5049405;27;39467;-77
2021/06/06 13:37:53;;;;;;;3.40;0.70;;;;;;;;;;5062460;27;38538;-77
2021/06/06 13:40:23;;;;;;;3.22;0.70;;;;;;;;;;5080702;28;38407;-77
2021/06/06 13:42:49;;;;;;;1.83;0.70;;;;;;;;;;5047751;28;35747;-77
2021/06/06 13:45:16;;;;;;;4.15;1.17;;;;;;;;;;5050722;27;38506;-78
2021/06/06 13:47:42;;;;;;;2.22;0.70;;;;;;;;;;5037049;28;39696;-79
2021/06/06 13:50:10;;;;;;;2.90;0.73;;;;;;;;;;5069617;28;38196;-79
2021/06/06 13:52:37;;;;;;;3.65;0.60;;;;;;;;;;5036427;27;37931;-77
2021/06/06 13:55:12;;;;;;;0.88;0.50;;;;;;;;;;5062439;28;40438;-77
2021/06/06 13:57:38;;;;;;;1.13;0.55;;;;;;;;;;5034050;28;47331;-77
2021/06/06 14:00:06;;;;;;;2.28;0.80;;;;;;;;;;5034710;28;38746;-76
2021/06/06 14:02:33;;;;;;;2.33;0.60;;;;;;;;;;5032793;28;47760;-76
2021/06/06 14:04:59;;;;;;;3.20;0.50;;;;;;;;;;5066111;28;39467;-78
2021/06/06 14:07:26;;;;;;;2.03;0.50;;;;;;;;;;5060859;27;37245;-78
2021/06/06 14:09:54;;;;;;;2.15;0.63;;;;;;;;;;5061277;28;39888;-78
2021/06/06 14:12:21;;;;;;;2.75;0.90;;;;;;;;;;5033970;28;37689;-78
2021/06/06 14:14:47;;;;;;;2.60;0.90;;;;;;;;;;5038600;28;40265;-76
2021/06/06 14:17:14;;;;;;;1.90;0.70;;;;;;;;;;5029063;28;38994;-77
2021/06/06 14:19:41;;;;;;;3.70;1.15;;;;;;;;;;5065927;28;37428;-76
2021/06/06 14:22:07;;;;;;;3.45;1.00;;;;;;;;;;5057565;28;35636;-77
2021/06/06 14:24:36;;;;;;;2.05;0.80;;;;;;;;;;5031111;28;39706;-78
2021/06/06 14:27:06;;;;;;;4.07;0.88;;;;;;;;;;5063895;28;38886;-78
2021/06/06 14:29:33;;;;;;;3.70;1.10;;;;;;;;;;5060276;28;40439;-77
2021/06/06 14:32:00;;;;;;;2.33;0.90;;;;;;;;;;5038424;28;37122;-77
2021/06/06 14:34:27;;;;;;;2.75;0.77;;;;;;;;;;5032561;28;40189;-79
2021/06/06 14:36:54;;;;;;;3.05;0.70;;;;;;;;;;5074153;28;37476;-78
2021/06/06 14:39:21;;;;;;;3.80;1.13;;;;;;;;;;5058448;28;37875;-79
2021/06/06 14:41:49;;;;;;;3.05;0.80;;;;;;;;;;5053817;27;37893;-77
2021/06/06 14:44:16;;;;;;;1.25;0.80;;;;;;;;;;5055593;27;39251;-80
2021/06/06 14:46:42;;;;;;;1.85;0.80;;;;;;;;;;5055666;27;39707;-77
2021/06/06 14:49:09;;;;;;;1.85;0.75;;;;;;;;;;5054790;28;37230;-78